createdAt,value
2022-11-15T00:00:21.058Z,999.71
2022-11-15T00:01:21.063Z,999.71
2022-11-15T00:02:21.105Z,999.70
2022-11-15T00:03:21.022Z,999.66
2022-11-15T00:04:21.018Z,999.61
2022-11-15T00:05:22.013Z,999.61
2022-11-15T00:06:20.970Z,999.58
2022-11-15T00:07:48.337Z,999.64
2022-11-15T00:08:21.961Z,999.60
2022-11-15T00:09:20.952Z,999.63
2022-11-15T00:10:20.940Z,999.61
2022-11-15T00:11:20.936Z,999.60
2022-11-15T00:12:20.961Z,999.59
2022-11-15T00:13:20.923Z,999.60
2022-11-15T00:14:20.891Z,999.58
2022-11-15T00:15:20.891Z,999.58
2022-11-15T00:16:20.882Z,999.59
2022-11-15T00:17:20.897Z,999.61
2022-11-15T00:18:21.858Z,999.59
2022-11-15T00:19:20.865Z,999.56
2022-11-15T00:20:20.845Z,999.54
2022-11-15T00:21:20.834Z,999.53
2022-11-15T00:22:20.834Z,999.59
2022-11-15T00:23:20.812Z,999.56
2022-11-15T00:24:20.803Z,999.54
2022-11-15T00:25:20.805Z,999.51
2022-11-15T00:26:20.776Z,999.54
2022-11-15T00:27:22.048Z,999.58
2022-11-15T00:28:20.744Z,999.56
2022-11-15T00:29:20.759Z,999.59
2022-11-15T00:30:21.985Z,999.56
2022-11-15T00:31:20.770Z,999.56
2022-11-15T00:32:20.704Z,999.51
2022-11-15T00:33:20.695Z,999.55
2022-11-15T00:34:20.751Z,999.51
2022-11-15T00:35:20.701Z,999.52
2022-11-15T00:36:20.903Z,999.53
2022-11-15T00:37:20.676Z,999.57
2022-11-15T00:38:20.640Z,999.56
2022-11-15T00:39:20.637Z,999.62
2022-11-15T00:40:20.654Z,999.60
2022-11-15T00:41:20.621Z,999.59
2022-11-15T00:42:20.606Z,999.55
2022-11-15T00:43:20.656Z,999.56
2022-11-15T00:44:20.604Z,999.59
2022-11-15T00:45:20.590Z,999.56
2022-11-15T00:46:20.575Z,999.53
2022-11-15T00:47:20.574Z,999.56
2022-11-15T00:48:20.545Z,999.58
2022-11-15T00:49:20.557Z,999.57
2022-11-15T00:50:20.527Z,999.57
2022-11-15T00:51:20.539Z,999.60
2022-11-15T00:52:20.506Z,999.56
2022-11-15T00:53:20.499Z,999.53
2022-11-15T00:54:20.485Z,999.51
2022-11-15T00:55:20.713Z,999.46
2022-11-15T00:56:20.500Z,999.51
2022-11-15T00:57:20.460Z,999.48
2022-11-15T00:58:20.464Z,999.52
2022-11-15T00:59:20.466Z,999.50
2022-11-15T01:00:20.433Z,999.49
2022-11-15T01:01:20.451Z,999.49
2022-11-15T01:02:20.448Z,999.49
2022-11-15T01:03:21.674Z,999.50
2022-11-15T01:04:20.379Z,999.49
2022-11-15T01:05:20.379Z,999.47
2022-11-15T01:06:20.380Z,999.45
2022-11-15T01:07:20.428Z,999.42
2022-11-15T01:08:20.348Z,999.41
2022-11-15T01:09:20.327Z,999.41
2022-11-15T01:10:20.339Z,999.38
2022-11-15T01:11:20.321Z,999.42
2022-11-15T01:12:20.322Z,999.40
2022-11-15T01:13:20.321Z,999.40
2022-11-15T01:14:25.078Z,999.41
2022-11-15T01:15:21.500Z,999.41
2022-11-15T01:16:20.287Z,999.41
2022-11-15T01:17:20.266Z,999.36
2022-11-15T01:18:20.252Z,999.38
2022-11-15T01:19:20.237Z,999.41
2022-11-15T01:20:20.261Z,999.37
2022-11-15T01:21:20.226Z,999.35
2022-11-15T01:22:20.197Z,999.37
2022-11-15T01:23:20.193Z,999.38
2022-11-15T01:24:20.183Z,999.32
2022-11-15T01:25:20.185Z,999.32
2022-11-15T01:26:20.151Z,999.27
2022-11-15T01:27:20.155Z,999.27
2022-11-15T01:28:20.138Z,999.30
2022-11-15T01:29:20.180Z,999.33
2022-11-15T01:30:20.109Z,999.26
2022-11-15T01:31:20.101Z,999.32
2022-11-15T01:32:20.107Z,999.28
2022-11-15T01:33:20.099Z,999.24
2022-11-15T01:34:20.077Z,999.25
2022-11-15T01:35:20.095Z,999.27
2022-11-15T01:36:20.054Z,999.25
2022-11-15T01:37:20.053Z,999.28
2022-11-15T01:38:20.047Z,999.23
2022-11-15T01:39:20.098Z,999.20
2022-11-15T01:40:20.017Z,999.15
2022-11-15T01:41:20.023Z,999.15
2022-11-15T01:42:20.239Z,999.14
2022-11-15T01:43:19.987Z,999.20
2022-11-15T01:44:19.990Z,999.18
2022-11-15T01:45:20.223Z,999.17
2022-11-15T01:46:19.973Z,999.09
2022-11-15T01:47:19.950Z,999.08
2022-11-15T01:48:19.929Z,999.05
2022-11-15T01:49:19.968Z,999.06
2022-11-15T01:50:19.918Z,999.04
2022-11-15T01:51:19.910Z,999.06
2022-11-15T01:52:19.917Z,999.04
2022-11-15T01:53:19.911Z,998.99
2022-11-15T01:54:20.095Z,999.00
2022-11-15T01:55:19.872Z,999.01
2022-11-15T01:56:19.845Z,999.01
2022-11-15T01:57:19.880Z,998.97
2022-11-15T01:58:19.829Z,999.02
2022-11-15T01:59:19.840Z,999.00
2022-11-15T02:00:19.818Z,999.00
2022-11-15T02:01:19.853Z,998.94
2022-11-15T02:02:19.803Z,998.95
2022-11-15T02:03:19.798Z,998.87
2022-11-15T02:04:19.812Z,998.90
2022-11-15T02:05:19.762Z,998.87
2022-11-15T02:06:19.751Z,998.84
2022-11-15T02:07:19.788Z,998.84
2022-11-15T02:08:19.730Z,998.84
2022-11-15T02:09:19.734Z,998.89
2022-11-15T02:10:19.761Z,998.87
2022-11-15T02:11:19.690Z,998.83
2022-11-15T02:12:19.706Z,998.85
2022-11-15T02:13:19.667Z,998.78
2022-11-15T02:14:19.692Z,998.83
2022-11-15T02:15:19.681Z,998.80
2022-11-15T02:16:19.652Z,998.83
2022-11-15T02:17:19.663Z,998.84
2022-11-15T02:18:19.624Z,998.78
2022-11-15T02:19:19.636Z,998.72
2022-11-15T02:20:20.086Z,998.74
2022-11-15T02:21:19.611Z,998.72
2022-11-15T02:22:19.618Z,998.71
2022-11-15T02:23:19.584Z,998.73
2022-11-15T02:24:19.566Z,998.75
2022-11-15T02:25:19.599Z,998.75
2022-11-15T02:26:19.775Z,998.73
2022-11-15T02:27:19.533Z,998.70
2022-11-15T02:28:19.519Z,998.68
2022-11-15T02:29:19.537Z,998.66
2022-11-15T02:30:19.493Z,998.63
2022-11-15T02:31:19.540Z,998.66
2022-11-15T02:32:19.487Z,998.62
2022-11-15T02:33:19.504Z,998.61
2022-11-15T02:34:19.466Z,998.58
2022-11-15T02:35:19.457Z,998.56
2022-11-15T02:36:19.479Z,998.59
2022-11-15T02:37:19.424Z,998.58
2022-11-15T02:38:19.428Z,998.61
2022-11-15T02:39:19.439Z,998.59
2022-11-15T02:40:19.406Z,998.60
2022-11-15T02:41:19.433Z,998.57
2022-11-15T02:42:19.389Z,998.51
2022-11-15T02:43:19.364Z,998.55
2022-11-15T02:44:19.364Z,998.54
2022-11-15T02:45:19.347Z,998.51
2022-11-15T02:46:19.357Z,998.54
2022-11-15T02:47:19.346Z,998.55
2022-11-15T02:48:19.336Z,998.50
2022-11-15T02:49:19.545Z,998.50
2022-11-15T02:50:19.326Z,998.44
2022-11-15T02:51:19.302Z,998.51
2022-11-15T02:52:19.304Z,998.54
2022-11-15T02:53:19.334Z,998.50
2022-11-15T02:54:19.241Z,998.52
2022-11-15T02:55:19.260Z,998.52
2022-11-15T02:56:19.274Z,998.50
2022-11-15T02:57:19.243Z,998.48
2022-11-15T02:58:19.219Z,998.44
2022-11-15T02:59:19.218Z,998.47
2022-11-15T03:00:19.198Z,998.47
2022-11-15T03:01:19.270Z,998.47
2022-11-15T03:02:19.204Z,998.42
2022-11-15T03:03:19.184Z,998.44
2022-11-15T03:04:20.147Z,998.40
2022-11-15T03:05:19.150Z,998.38
2022-11-15T03:06:19.128Z,998.39
2022-11-15T03:07:19.259Z,998.38
2022-11-15T03:08:19.154Z,998.37
2022-11-15T03:09:19.108Z,998.38
2022-11-15T03:10:19.091Z,998.36
2022-11-15T03:11:19.089Z,998.35
2022-11-15T03:12:19.071Z,998.30
2022-11-15T03:13:19.098Z,998.27
2022-11-15T03:14:19.049Z,998.22
2022-11-15T03:15:19.058Z,998.23
2022-11-15T03:16:19.040Z,998.28
2022-11-15T03:17:19.018Z,998.26
2022-11-15T03:18:19.027Z,998.22
2022-11-15T03:19:19.032Z,998.24
2022-11-15T03:20:19.025Z,998.19
2022-11-15T03:21:18.983Z,998.22
2022-11-15T03:22:18.967Z,998.18
2022-11-15T03:23:18.959Z,998.24
2022-11-15T03:24:24.724Z,998.23
2022-11-15T03:25:19.937Z,998.17
2022-11-15T03:26:18.930Z,998.18
2022-11-15T03:27:18.920Z,998.19
2022-11-15T03:28:18.916Z,998.14
2022-11-15T03:29:18.922Z,998.15
2022-11-15T03:30:18.892Z,998.15
2022-11-15T03:31:18.885Z,998.15
2022-11-15T03:32:18.910Z,998.15
2022-11-15T03:33:18.860Z,998.17
2022-11-15T03:34:18.871Z,998.18
2022-11-15T03:35:18.836Z,998.14
2022-11-15T03:36:18.830Z,998.12
2022-11-15T03:37:18.831Z,998.11
2022-11-15T03:38:18.939Z,998.12
2022-11-15T03:39:20.742Z,998.10
2022-11-15T03:40:18.802Z,998.11
2022-11-15T03:41:18.780Z,998.11
2022-11-15T03:42:18.780Z,998.15
2022-11-15T03:43:18.770Z,998.13
2022-11-15T03:44:18.766Z,998.15
2022-11-15T03:45:18.763Z,998.15
2022-11-15T03:46:18.725Z,998.16
2022-11-15T03:47:18.726Z,998.17
2022-11-15T03:48:18.695Z,998.16
2022-11-15T03:49:18.716Z,998.16
2022-11-15T03:50:18.724Z,998.13
2022-11-15T03:51:18.913Z,998.10
2022-11-15T03:52:18.679Z,998.05
2022-11-15T03:53:18.656Z,998.08
2022-11-15T03:54:18.634Z,998.05
2022-11-15T03:55:18.646Z,998.08
2022-11-15T03:56:18.669Z,998.04
2022-11-15T03:57:21.631Z,998.08
2022-11-15T03:58:18.614Z,998.06
2022-11-15T03:59:18.606Z,998.07
2022-11-15T04:00:18.602Z,998.07
2022-11-15T04:01:18.659Z,998.06
2022-11-15T04:02:18.573Z,998.04
2022-11-15T04:03:18.546Z,998.03
2022-11-15T04:04:18.565Z,998.05
2022-11-15T04:05:18.549Z,997.99
2022-11-15T04:06:18.522Z,998.02
2022-11-15T04:07:18.595Z,998.03
2022-11-15T04:08:18.557Z,998.04
2022-11-15T04:09:18.489Z,998.06
2022-11-15T04:10:18.473Z,998.04
2022-11-15T04:11:18.483Z,998.03
2022-11-15T04:12:18.488Z,998.02
2022-11-15T04:13:18.461Z,998.04
2022-11-15T04:14:18.440Z,998.07
2022-11-15T04:15:18.419Z,998.10
2022-11-15T04:16:18.430Z,998.07
2022-11-15T04:17:18.419Z,998.06
2022-11-15T04:18:18.416Z,998.08
2022-11-15T04:19:18.428Z,998.03
2022-11-15T04:20:18.392Z,998.09
2022-11-15T04:21:18.385Z,998.05
2022-11-15T04:22:18.367Z,998.05
2022-11-15T04:23:18.384Z,998.07
2022-11-15T04:24:18.385Z,998.11
2022-11-15T04:25:22.870Z,998.12
2022-11-15T04:26:19.332Z,998.17
2022-11-15T04:27:18.296Z,998.12
2022-11-15T04:28:18.292Z,998.15
2022-11-15T04:29:18.308Z,998.14
2022-11-15T04:30:18.310Z,998.16
2022-11-15T04:31:21.300Z,998.13
2022-11-15T04:32:18.270Z,998.15
2022-11-15T04:33:18.248Z,998.13
2022-11-15T04:34:18.255Z,998.12
2022-11-15T04:35:19.242Z,998.07
2022-11-15T04:36:18.212Z,998.11
2022-11-15T04:37:18.201Z,998.10
2022-11-15T04:38:18.204Z,998.09
2022-11-15T04:39:18.190Z,998.11
2022-11-15T04:40:18.191Z,998.08
2022-11-15T04:41:18.172Z,998.08
2022-11-15T04:42:18.164Z,998.10
2022-11-15T04:43:21.186Z,998.10
2022-11-15T04:44:18.131Z,998.08
2022-11-15T04:45:18.135Z,998.10
2022-11-15T04:46:18.127Z,998.07
2022-11-15T04:47:18.110Z,998.05
2022-11-15T04:48:19.104Z,998.02
2022-11-15T04:49:18.091Z,997.95
2022-11-15T04:50:18.067Z,997.95
2022-11-15T04:51:18.100Z,997.99
2022-11-15T04:52:18.054Z,997.97
2022-11-15T04:53:18.035Z,997.98
2022-11-15T04:54:18.043Z,997.97
2022-11-15T04:55:18.018Z,997.98
2022-11-15T04:56:18.054Z,997.97
2022-11-15T04:57:18.234Z,997.95
2022-11-15T04:58:17.995Z,997.97
2022-11-15T04:59:17.970Z,997.96
2022-11-15T05:00:17.979Z,998.00
2022-11-15T05:01:18.046Z,997.97
2022-11-15T05:02:18.980Z,997.96
2022-11-15T05:03:17.942Z,997.95
2022-11-15T05:04:17.935Z,997.92
2022-11-15T05:05:17.913Z,997.93
2022-11-15T05:06:17.949Z,997.92
2022-11-15T05:07:17.994Z,997.94
2022-11-15T05:08:17.913Z,997.89
2022-11-15T05:09:17.862Z,997.89
2022-11-15T05:10:17.874Z,997.88
2022-11-15T05:11:17.894Z,997.88
2022-11-15T05:12:17.856Z,997.93
2022-11-15T05:13:17.843Z,997.90
2022-11-15T05:14:17.832Z,997.91
2022-11-15T05:15:17.845Z,997.94
2022-11-15T05:16:17.807Z,997.92
2022-11-15T05:17:17.854Z,997.93
2022-11-15T05:18:23.111Z,997.94
2022-11-15T05:19:18.758Z,997.93
2022-11-15T05:20:17.765Z,997.96
2022-11-15T05:21:17.744Z,997.92
2022-11-15T05:22:17.755Z,997.93
2022-11-15T05:23:17.759Z,997.93
2022-11-15T05:24:17.723Z,997.93
2022-11-15T05:25:17.726Z,997.93
2022-11-15T05:26:17.709Z,997.88
2022-11-15T05:27:17.691Z,997.91
2022-11-15T05:28:17.712Z,997.93
2022-11-15T05:29:17.672Z,997.91
2022-11-15T05:30:28.775Z,997.91
2022-11-15T05:31:18.001Z,997.92
2022-11-15T05:32:17.967Z,997.91
2022-11-15T05:33:18.023Z,997.95
2022-11-15T05:34:17.835Z,997.93
2022-11-15T05:35:17.599Z,997.93
2022-11-15T05:36:17.603Z,997.95
2022-11-15T05:37:17.592Z,998.00
2022-11-15T05:38:17.591Z,997.98
2022-11-15T05:39:17.593Z,997.96
2022-11-15T05:40:17.557Z,998.00
2022-11-15T05:41:17.564Z,998.00
2022-11-15T05:42:17.543Z,998.00
2022-11-15T05:43:17.531Z,997.99
2022-11-15T05:44:17.510Z,997.92
2022-11-15T05:45:19.319Z,997.91
2022-11-15T05:46:18.502Z,997.92
2022-11-15T05:47:17.490Z,997.89
2022-11-15T05:48:18.504Z,997.93
2022-11-15T05:49:17.491Z,997.86
2022-11-15T05:50:17.478Z,997.88
2022-11-15T05:51:17.446Z,997.85
2022-11-15T05:52:17.438Z,997.81
2022-11-15T05:53:17.429Z,997.78
2022-11-15T05:54:17.433Z,997.83
2022-11-15T05:55:17.414Z,997.75
2022-11-15T05:56:17.432Z,997.75
2022-11-15T05:57:17.426Z,997.74
2022-11-15T05:58:17.391Z,997.75
2022-11-15T05:59:17.371Z,997.76
2022-11-15T06:00:17.365Z,997.71
2022-11-15T06:01:17.396Z,997.65
2022-11-15T06:02:17.389Z,997.67
2022-11-15T06:03:17.334Z,997.68
2022-11-15T06:04:17.317Z,997.64
2022-11-15T06:05:17.312Z,997.69
2022-11-15T06:06:18.318Z,997.65
2022-11-15T06:07:17.408Z,997.65
2022-11-15T06:08:17.275Z,997.68
2022-11-15T06:09:17.287Z,997.65
2022-11-15T06:10:17.244Z,997.64
2022-11-15T06:11:17.239Z,997.69
2022-11-15T06:12:17.250Z,997.64
2022-11-15T06:13:17.223Z,997.64
2022-11-15T06:14:17.217Z,997.60
2022-11-15T06:15:17.196Z,997.61
2022-11-15T06:16:24.342Z,997.55
2022-11-15T06:17:17.178Z,997.49
2022-11-15T06:18:17.199Z,997.53
2022-11-15T06:19:17.153Z,997.50
2022-11-15T06:20:17.143Z,997.52
2022-11-15T06:21:17.161Z,997.52
2022-11-15T06:22:17.147Z,997.52
2022-11-15T06:23:17.180Z,997.52
2022-11-15T06:24:17.109Z,997.51
2022-11-15T06:25:17.107Z,997.50
2022-11-15T06:26:17.105Z,997.58
2022-11-15T06:27:17.110Z,997.57
2022-11-15T06:28:17.077Z,997.60
2022-11-15T06:29:17.135Z,997.69
2022-11-15T06:30:17.060Z,997.67
2022-11-15T06:31:17.067Z,997.68
2022-11-15T06:32:17.029Z,997.73
2022-11-15T06:33:17.018Z,997.75
2022-11-15T06:34:17.014Z,997.75
2022-11-15T06:35:17.039Z,997.79
2022-11-15T06:36:17.943Z,997.75
2022-11-15T06:37:16.979Z,997.74
2022-11-15T06:38:16.969Z,997.77
2022-11-15T06:39:16.943Z,997.82
2022-11-15T06:40:17.004Z,997.85
2022-11-15T06:41:16.939Z,997.86
2022-11-15T06:42:16.921Z,997.90
2022-11-15T06:43:16.941Z,997.94
2022-11-15T06:44:16.894Z,997.96
2022-11-15T06:45:16.901Z,997.97
2022-11-15T06:46:16.928Z,997.99
2022-11-15T06:47:16.918Z,997.96
2022-11-15T06:48:16.871Z,997.91
2022-11-15T06:49:16.855Z,997.89
2022-11-15T06:50:16.872Z,997.91
2022-11-15T06:51:16.872Z,997.95
2022-11-15T06:52:16.855Z,997.98
2022-11-15T06:53:16.813Z,997.96
2022-11-15T06:54:16.816Z,997.97
2022-11-15T06:55:16.782Z,997.97
2022-11-15T06:56:16.797Z,997.99
2022-11-15T06:57:16.801Z,997.98
2022-11-15T06:58:16.793Z,998.00
2022-11-15T06:59:16.780Z,997.99
2022-11-15T07:00:19.781Z,998.03
2022-11-15T07:01:16.803Z,998.04
2022-11-15T07:02:16.745Z,998.05
2022-11-15T07:03:16.713Z,997.99
2022-11-15T07:04:16.705Z,998.05
2022-11-15T07:05:16.706Z,998.03
2022-11-15T07:06:16.684Z,998.06
2022-11-15T07:07:16.716Z,998.04
2022-11-15T07:08:16.669Z,998.02
2022-11-15T07:09:16.644Z,998.02
2022-11-15T07:10:16.646Z,998.03
2022-11-15T07:11:16.635Z,998.01
2022-11-15T07:12:16.635Z,998.03
2022-11-15T07:13:16.630Z,997.96
2022-11-15T07:14:16.592Z,997.96
2022-11-15T07:15:16.595Z,997.96
2022-11-15T07:16:16.596Z,997.94
2022-11-15T07:17:16.573Z,997.94
2022-11-15T07:18:16.584Z,997.90
2022-11-15T07:19:16.574Z,997.92
2022-11-15T07:20:16.543Z,997.92
2022-11-15T07:21:16.742Z,997.87
2022-11-15T07:22:16.523Z,997.89
2022-11-15T07:23:16.519Z,997.91
2022-11-15T07:24:16.531Z,997.89
2022-11-15T07:25:16.474Z,997.93
2022-11-15T07:26:16.518Z,997.96
2022-11-15T07:27:16.479Z,997.90
2022-11-15T07:28:16.454Z,997.92
2022-11-15T07:29:16.454Z,997.92
2022-11-15T07:30:16.477Z,997.90
2022-11-15T07:31:17.425Z,997.93
2022-11-15T07:32:16.449Z,997.86
2022-11-15T07:33:16.414Z,997.92
2022-11-15T07:34:16.423Z,997.88
2022-11-15T07:35:16.386Z,997.91
2022-11-15T07:36:16.405Z,997.90
2022-11-15T07:37:16.381Z,997.89
2022-11-15T07:38:16.350Z,997.94
2022-11-15T07:39:16.366Z,997.92
2022-11-15T07:40:16.383Z,997.94
2022-11-15T07:41:16.327Z,997.91
2022-11-15T07:42:16.320Z,997.90
2022-11-15T07:43:16.326Z,997.90
2022-11-15T07:44:16.289Z,997.92
2022-11-15T07:45:16.330Z,997.85
2022-11-15T07:46:16.293Z,997.90
2022-11-15T07:47:16.277Z,997.83
2022-11-15T07:48:16.240Z,997.84
2022-11-15T07:49:16.475Z,997.87
2022-11-15T07:50:16.218Z,997.83
2022-11-15T07:51:16.212Z,997.84
2022-11-15T07:52:16.260Z,997.86
2022-11-15T07:53:16.220Z,997.83
2022-11-15T07:54:16.194Z,997.82
2022-11-15T07:55:16.186Z,997.78
2022-11-15T07:56:16.193Z,997.78
2022-11-15T07:57:16.193Z,997.77
2022-11-15T07:58:16.155Z,997.77
2022-11-15T07:59:16.140Z,997.74
2022-11-15T08:00:16.141Z,997.74
2022-11-15T08:01:16.294Z,997.79
2022-11-15T08:02:16.235Z,997.83
2022-11-15T08:03:16.119Z,997.81
2022-11-15T08:04:16.112Z,997.86
2022-11-15T08:05:16.071Z,997.87
2022-11-15T08:06:16.079Z,997.86
2022-11-15T08:07:16.115Z,997.91
2022-11-15T08:08:16.069Z,997.90
2022-11-15T08:09:16.063Z,997.88
2022-11-15T08:10:16.016Z,997.85
2022-11-15T08:11:16.023Z,997.84
2022-11-15T08:12:16.011Z,997.83
2022-11-15T08:13:16.075Z,997.84
2022-11-15T08:14:16.013Z,997.86
2022-11-15T08:15:15.989Z,997.89
2022-11-15T08:16:15.979Z,997.89
2022-11-15T08:17:15.959Z,997.88
2022-11-15T08:18:15.979Z,997.89
2022-11-15T08:19:15.937Z,997.86
2022-11-15T08:20:15.968Z,997.85
2022-11-15T08:21:18.440Z,997.84
2022-11-15T08:22:15.933Z,997.84
2022-11-15T08:23:15.903Z,997.82
2022-11-15T08:24:15.894Z,997.80
2022-11-15T08:25:15.868Z,997.77
2022-11-15T08:26:15.843Z,997.70
2022-11-15T08:27:16.058Z,997.76
2022-11-15T08:28:15.880Z,997.77
2022-11-15T08:29:15.933Z,997.82
2022-11-15T08:30:15.814Z,997.78
2022-11-15T08:31:15.813Z,997.76
2022-11-15T08:32:15.800Z,997.77
2022-11-15T08:33:15.787Z,997.78
2022-11-15T08:34:15.807Z,997.80
2022-11-15T08:35:15.767Z,997.78
2022-11-15T08:36:15.757Z,997.82
2022-11-15T08:37:15.762Z,997.78
2022-11-15T08:38:15.750Z,997.83
2022-11-15T08:39:15.779Z,997.78
2022-11-15T08:40:15.737Z,997.75
2022-11-15T08:41:15.705Z,997.79
2022-11-15T08:42:19.614Z,997.78
2022-11-15T08:43:15.680Z,997.73
2022-11-15T08:44:15.704Z,997.74
2022-11-15T08:45:15.730Z,997.74
2022-11-15T08:46:15.664Z,997.73
2022-11-15T08:47:15.651Z,997.70
2022-11-15T08:48:15.632Z,997.69
2022-11-15T08:49:15.632Z,997.67
2022-11-15T08:50:15.642Z,997.66
2022-11-15T08:51:15.634Z,997.68
2022-11-15T08:52:15.605Z,997.58
2022-11-15T08:53:15.593Z,997.60
2022-11-15T08:54:15.571Z,997.53
2022-11-15T08:55:17.573Z,997.49
2022-11-15T08:56:15.586Z,997.46
2022-11-15T08:57:15.562Z,997.51
2022-11-15T08:58:15.570Z,997.53
2022-11-15T08:59:15.531Z,997.47
2022-11-15T09:00:15.517Z,997.49
2022-11-15T09:01:18.352Z,997.50
2022-11-15T09:02:15.504Z,997.50
2022-11-15T09:03:15.495Z,997.43
2022-11-15T09:04:15.475Z,997.44
2022-11-15T09:05:15.480Z,997.47
2022-11-15T09:06:16.156Z,997.40
2022-11-15T09:07:15.489Z,997.45
2022-11-15T09:08:45.587Z,997.41
2022-11-15T09:09:16.454Z,997.43
2022-11-15T09:10:15.404Z,997.43
2022-11-15T09:11:15.497Z,997.46
2022-11-15T09:12:15.422Z,997.42
2022-11-15T09:13:15.379Z,997.46
2022-11-15T09:14:15.382Z,997.38
2022-11-15T09:15:15.419Z,997.42
2022-11-15T09:16:15.527Z,997.39
2022-11-15T09:17:17.219Z,997.41
2022-11-15T09:18:16.331Z,997.39
2022-11-15T09:19:15.341Z,997.39
2022-11-15T09:20:15.317Z,997.33
2022-11-15T09:21:15.317Z,997.29
2022-11-15T09:22:15.334Z,997.34
2022-11-15T09:23:15.288Z,997.34
2022-11-15T09:24:15.263Z,997.25
2022-11-15T09:25:15.265Z,997.26
2022-11-15T09:26:15.262Z,997.24
2022-11-15T09:27:15.259Z,997.24
2022-11-15T09:28:15.239Z,997.20
2022-11-15T09:29:15.231Z,997.17
2022-11-15T09:30:15.206Z,997.13
2022-11-15T09:31:20.964Z,997.13
2022-11-15T09:32:16.206Z,997.08
2022-11-15T09:33:15.189Z,997.08
2022-11-15T09:34:15.153Z,997.13
2022-11-15T09:35:15.154Z,997.11
2022-11-15T09:36:15.182Z,997.14
2022-11-15T09:37:15.141Z,997.14
2022-11-15T09:38:15.149Z,997.06
2022-11-15T09:39:15.177Z,997.05
2022-11-15T09:40:15.111Z,997.02
2022-11-15T09:41:15.131Z,997.00
2022-11-15T09:42:15.081Z,997.03
2022-11-15T09:43:15.100Z,997.02
2022-11-15T09:44:15.103Z,996.98
2022-11-15T09:45:15.053Z,997.02
2022-11-15T09:46:15.336Z,997.01
2022-11-15T09:47:15.091Z,997.01
2022-11-15T09:48:15.015Z,997.02
2022-11-15T09:49:15.048Z,997.04
2022-11-15T09:50:15.001Z,997.04
2022-11-15T09:51:14.993Z,997.06
2022-11-15T09:52:14.999Z,997.04
2022-11-15T09:53:14.968Z,997.02
2022-11-15T09:55:15.927Z,997.04
2022-11-15T09:56:14.946Z,997.00
2022-11-15T09:57:16.428Z,997.01
2022-11-15T09:58:14.911Z,996.97
2022-11-15T09:59:15.075Z,996.94
2022-11-15T10:01:15.940Z,996.95
2022-11-15T10:02:14.883Z,996.91
2022-11-15T10:03:14.873Z,997.00
2022-11-15T10:04:14.867Z,997.01
2022-11-15T10:05:14.875Z,997.04
2022-11-15T10:06:14.867Z,997.03
2022-11-15T10:07:14.925Z,996.94
2022-11-15T10:08:14.841Z,996.96
2022-11-15T10:09:14.819Z,996.97
2022-11-15T10:10:14.823Z,996.96
2022-11-15T10:12:15.764Z,996.91
2022-11-15T10:13:14.765Z,996.90
2022-11-15T10:14:14.783Z,996.84
2022-11-15T10:15:14.774Z,996.85
2022-11-15T10:16:14.737Z,996.86
2022-11-15T10:17:14.726Z,996.88
2022-11-15T10:18:14.739Z,996.87
2022-11-15T10:19:14.729Z,996.87
2022-11-15T10:20:14.715Z,996.86
2022-11-15T10:21:14.712Z,996.86
2022-11-15T10:22:14.737Z,996.87
2022-11-15T10:23:14.938Z,996.83
2022-11-15T10:24:14.640Z,996.83
2022-11-15T10:25:14.635Z,996.85
2022-11-15T10:26:14.680Z,996.85
2022-11-15T10:27:14.636Z,996.81
2022-11-15T10:28:14.681Z,996.76
2022-11-15T10:29:14.602Z,996.76
2022-11-15T10:30:14.599Z,996.72
2022-11-15T10:31:15.557Z,996.74
2022-11-15T10:32:14.605Z,996.74
2022-11-15T10:33:14.565Z,996.73
2022-11-15T10:34:14.546Z,996.73
2022-11-15T10:35:14.543Z,996.76
2022-11-15T10:36:14.553Z,996.76
2022-11-15T10:37:14.537Z,996.70
2022-11-15T10:38:14.544Z,996.70
2022-11-15T10:39:14.510Z,996.74
2022-11-15T10:40:14.485Z,996.70
2022-11-15T10:41:14.511Z,996.70
2022-11-15T10:42:17.767Z,996.67
2022-11-15T10:43:14.492Z,996.62
2022-11-15T10:44:14.478Z,996.62
2022-11-15T10:45:14.451Z,996.59
2022-11-15T10:46:44.437Z,996.63
2022-11-15T10:47:15.444Z,996.62
2022-11-15T10:48:14.437Z,996.60
2022-11-15T10:49:14.427Z,996.57
2022-11-15T10:50:14.367Z,996.58
2022-11-15T10:51:14.381Z,996.57
2022-11-15T10:52:14.401Z,996.57
2022-11-15T10:53:14.352Z,996.54
2022-11-15T10:54:18.460Z,996.51
2022-11-15T10:55:15.344Z,996.52
2022-11-15T10:56:14.327Z,996.47
2022-11-15T10:57:14.353Z,996.43
2022-11-15T10:58:14.305Z,996.37
2022-11-15T10:59:14.489Z,996.40
2022-11-15T11:00:14.292Z,996.37
2022-11-15T11:01:14.346Z,996.36
2022-11-15T11:02:14.269Z,996.34
2022-11-15T11:03:14.243Z,996.37
2022-11-15T11:04:14.276Z,996.36
2022-11-15T11:05:14.238Z,996.33
2022-11-15T11:06:14.236Z,996.30
2022-11-15T11:07:14.366Z,996.26
2022-11-15T11:08:14.205Z,996.25
2022-11-15T11:09:14.205Z,996.25
2022-11-15T11:10:44.231Z,996.20
2022-11-15T11:11:15.188Z,996.27
2022-11-15T11:12:14.158Z,996.21
2022-11-15T11:13:14.188Z,996.21
2022-11-15T11:14:14.177Z,996.18
2022-11-15T11:15:14.208Z,996.17
2022-11-15T11:16:14.111Z,996.20
2022-11-15T11:17:14.145Z,996.16
2022-11-15T11:18:14.117Z,996.20
2022-11-15T11:19:14.134Z,996.19
2022-11-15T11:20:14.086Z,996.17
2022-11-15T11:21:14.094Z,996.13
2022-11-15T11:22:14.055Z,996.13
2022-11-15T11:23:14.067Z,996.11
2022-11-15T11:24:14.046Z,996.13
2022-11-15T11:25:14.057Z,996.10
2022-11-15T11:26:14.025Z,996.12
2022-11-15T11:27:14.027Z,996.10
2022-11-15T11:28:13.988Z,996.12
2022-11-15T11:29:13.990Z,996.09
2022-11-15T11:30:13.987Z,996.09
2022-11-15T11:31:13.978Z,996.07
2022-11-15T11:32:13.991Z,996.06
2022-11-15T11:33:13.961Z,996.04
2022-11-15T11:34:13.932Z,996.07
2022-11-15T11:35:13.973Z,996.02
2022-11-15T11:36:13.937Z,996.05
2022-11-15T11:37:13.957Z,996.02
2022-11-15T11:38:16.364Z,995.98
2022-11-15T11:39:13.889Z,996.00
2022-11-15T11:40:13.883Z,995.97
2022-11-15T11:41:13.872Z,995.95
2022-11-15T11:42:13.870Z,995.97
2022-11-15T11:43:13.880Z,995.96
2022-11-15T11:44:13.933Z,995.94
2022-11-15T11:45:13.858Z,995.94
2022-11-15T11:46:13.797Z,995.94
2022-11-15T11:47:13.801Z,995.90
2022-11-15T11:48:13.828Z,995.91
2022-11-15T11:49:13.776Z,995.86
2022-11-15T11:50:13.866Z,995.89
2022-11-15T11:51:13.772Z,995.82
2022-11-15T11:52:13.751Z,995.83
2022-11-15T11:53:13.755Z,995.79
2022-11-15T11:54:13.741Z,995.80
2022-11-15T11:55:13.714Z,995.79
2022-11-15T11:56:13.727Z,995.74
2022-11-15T11:57:13.686Z,995.73
2022-11-15T11:58:13.735Z,995.75
2022-11-15T11:59:13.669Z,995.74
2022-11-15T12:00:13.740Z,995.73
2022-11-15T12:01:13.685Z,995.71
2022-11-15T12:02:13.824Z,995.68
2022-11-15T12:03:13.819Z,995.67
2022-11-15T12:04:13.626Z,995.57
2022-11-15T12:05:13.635Z,995.49
2022-11-15T12:06:13.612Z,995.48
2022-11-15T12:07:13.651Z,995.47
2022-11-15T12:08:13.599Z,995.45
2022-11-15T12:09:13.565Z,995.48
2022-11-15T12:10:13.550Z,995.43
2022-11-15T12:11:13.555Z,995.43
2022-11-15T12:12:13.540Z,995.41
2022-11-15T12:13:13.574Z,995.38
2022-11-15T12:14:13.529Z,995.37
2022-11-15T12:15:13.517Z,995.34
2022-11-15T12:16:13.496Z,995.30
2022-11-15T12:17:13.506Z,995.31
2022-11-15T12:18:13.561Z,995.32
2022-11-15T12:19:13.460Z,995.27
2022-11-15T12:20:13.465Z,995.29
2022-11-15T12:21:13.456Z,995.25
2022-11-15T12:22:13.436Z,995.25
2022-11-15T12:23:13.431Z,995.23
2022-11-15T12:24:13.425Z,995.18
2022-11-15T12:25:13.403Z,995.15
2022-11-15T12:26:13.408Z,995.19
2022-11-15T12:27:13.387Z,995.17
2022-11-15T12:28:13.407Z,995.13
2022-11-15T12:29:13.388Z,995.09
2022-11-15T12:30:13.375Z,995.11
2022-11-15T12:31:13.340Z,995.03